THY7KF LTFM-LOWW
Flight info
| Callsign | THY7KF |
|---|---|
| Flight time | 1h 52m |
| Altitude | 38000 |
| Route | TUDBU1D/35L TUDBU DCT ETUBA DCT APROB DCT BALUX DCT TORNO DCT NATEX NATEX2W |
| Aircraft | B38M/M-SDE1FGHILORVWXY/HB1 |
Departure
| Time | 2026-04-25 12:16 |
|---|---|
| Airport | İstanbul Airport (LTFM) |
Arrival
| Time | 2026-04-25 14:08 |
|---|---|
| Airport | Vienna International Airport (LOWW) |
| Time | Latitude | Longitude | Altitude | Speed | Heading |
|---|---|---|---|---|---|
| 2026-04-25 11:38 | 41.26704 | 28.73456 | 336 ft | 0 kts | 92° |
| 2026-04-25 12:05 | 41.26704 | 28.73444 | 332 ft | 4 kts | 93° |
| 2026-04-25 12:05 | 41.26706 | 28.73409 | 336 ft | 4 kts | 96° |
| 2026-04-25 12:06 | 41.26710 | 28.73373 | 336 ft | 4 kts | 105° |
| 2026-04-25 12:06 | 41.26721 | 28.73343 | 331 ft | 4 kts | 137° |
| 2026-04-25 12:06 | 41.26733 | 28.73334 | 334 ft | 0 kts | 179° |
| 2026-04-25 12:11 | 41.26725 | 28.73329 | 336 ft | 2 kts | 213° |
| 2026-04-25 12:11 | 41.26719 | 28.73309 | 333 ft | 3 kts | 274° |
| 2026-04-25 12:12 | 41.26720 | 28.73273 | 333 ft | 5 kts | 272° |
| 2026-04-25 12:12 | 41.26721 | 28.73237 | 335 ft | 7 kts | 270° |
| 2026-04-25 12:12 | 41.26719 | 28.73133 | 336 ft | 10 kts | 268° |
| 2026-04-25 12:12 | 41.26717 | 28.73035 | 336 ft | 11 kts | 269° |
| 2026-04-25 12:13 | 41.26717 | 28.72974 | 336 ft | 0 kts | 269° |
| 2026-04-25 12:13 | 41.26717 | 28.72966 | 336 ft | 2 kts | 269° |
| 2026-04-25 12:13 | 41.26716 | 28.72926 | 333 ft | 8 kts | 269° |
| 2026-04-25 12:13 | 41.26714 | 28.72815 | 336 ft | 14 kts | 269° |
| 2026-04-25 12:14 | 41.26713 | 28.72681 | 335 ft | 11 kts | 269° |
| 2026-04-25 12:14 | 41.26713 | 28.72651 | 336 ft | 0 kts | 269° |
| 2026-04-25 12:14 | 41.26713 | 28.72650 | 336 ft | 1 kts | 269° |
| 2026-04-25 12:15 | 41.26712 | 28.72622 | 336 ft | 7 kts | 268° |
| 2026-04-25 12:15 | 41.26714 | 28.72532 | 334 ft | 9 kts | 295° |
| 2026-04-25 12:15 | 41.26775 | 28.72513 | 333 ft | 10 kts | 357° |
| 2026-04-25 12:15 | 41.26888 | 28.72510 | 333 ft | 31 kts | 359° |
| 2026-04-25 12:16 | 41.27340 | 28.72501 | 335 ft | 97 kts | 359° |
| 2026-04-25 12:16 | 41.28202 | 28.72480 | 334 ft | 148 kts | 0° |
| 2026-04-25 12:16 | 41.29303 | 28.72524 | 660 ft | 165 kts | 5° |
| 2026-04-25 12:16 | 41.30450 | 28.72649 | 1298 ft | 168 kts | 7° |
| 2026-04-25 12:17 | 41.31622 | 28.72780 | 1987 ft | 170 kts | 2° |
| 2026-04-25 12:17 | 41.32788 | 28.72717 | 2848 ft | 168 kts | 358° |
| 2026-04-25 12:17 | 41.33990 | 28.72655 | 3424 ft | 177 kts | 358° |
| 2026-04-25 12:17 | 41.35248 | 28.72614 | 3975 ft | 188 kts | 359° |
| 2026-04-25 12:18 | 41.36632 | 28.72590 | 4357 ft | 210 kts | 360° |
| 2026-04-25 12:18 | 41.38171 | 28.72461 | 4685 ft | 237 kts | 345° |
| 2026-04-25 12:18 | 41.39746 | 28.71558 | 5105 ft | 256 kts | 334° |
| 2026-04-25 12:18 | 41.41389 | 28.70510 | 5817 ft | 269 kts | 335° |
| 2026-04-25 12:19 | 41.44283 | 28.68668 | 7096 ft | 280 kts | 334° |
| 2026-04-25 12:19 | 41.46661 | 28.67151 | 8182 ft | 286 kts | 334° |
| 2026-04-25 12:19 | 41.48470 | 28.65994 | 9021 ft | 290 kts | 334° |
| 2026-04-25 12:20 | 41.50300 | 28.64823 | 9813 ft | 294 kts | 334° |
| 2026-04-25 12:20 | 41.52167 | 28.63628 | 10478 ft | 304 kts | 334° |
| 2026-04-25 12:20 | 41.54137 | 28.62366 | 10917 ft | 321 kts | 334° |
| 2026-04-25 12:20 | 41.56183 | 28.61053 | 11502 ft | 331 kts | 333° |
| 2026-04-25 12:21 | 41.58059 | 28.59304 | 12356 ft | 330 kts | 313° |
| 2026-04-25 12:21 | 41.59091 | 28.57810 | 12902 ft | 332 kts | 311° |
| 2026-04-25 12:21 | 41.61199 | 28.54782 | 13956 ft | 338 kts | 311° |
| 2026-04-25 12:21 | 41.62800 | 28.52456 | 14753 ft | 342 kts | 311° |
| 2026-04-25 12:22 | 41.64412 | 28.50103 | 15542 ft | 346 kts | 311° |
| 2026-04-25 12:22 | 41.66043 | 28.47713 | 16306 ft | 350 kts | 311° |
| 2026-04-25 12:22 | 41.67439 | 28.45049 | 17041 ft | 352 kts | 294° |
| 2026-04-25 12:22 | 41.68095 | 28.43060 | 17531 ft | 354 kts | 294° |
| 2026-04-25 12:23 | 41.69116 | 28.40030 | 18164 ft | 359 kts | 294° |
| 2026-04-25 12:23 | 41.70136 | 28.36961 | 18857 ft | 362 kts | 294° |
| 2026-04-25 12:23 | 41.71156 | 28.33859 | 19519 ft | 366 kts | 294° |
| 2026-04-25 12:23 | 41.72184 | 28.30722 | 20122 ft | 369 kts | 293° |
| 2026-04-25 12:24 | 41.73217 | 28.27555 | 20776 ft | 372 kts | 293° |
| 2026-04-25 12:24 | 41.74256 | 28.24367 | 21358 ft | 375 kts | 293° |
| 2026-04-25 12:24 | 41.75304 | 28.21145 | 21935 ft | 378 kts | 293° |
| 2026-04-25 12:24 | 41.76359 | 28.17901 | 22516 ft | 381 kts | 294° |
| 2026-04-25 12:25 | 41.77420 | 28.14631 | 23079 ft | 384 kts | 294° |
| 2026-04-25 12:25 | 41.78489 | 28.11335 | 23611 ft | 387 kts | 294° |
| 2026-04-25 12:25 | 41.79671 | 28.08096 | 24122 ft | 389 kts | 304° |
| 2026-04-25 12:25 | 41.81302 | 28.05189 | 24629 ft | 391 kts | 307° |
| 2026-04-25 12:26 | 41.82921 | 28.02278 | 25081 ft | 395 kts | 307° |
| 2026-04-25 12:26 | 41.84569 | 27.99329 | 25584 ft | 397 kts | 307° |
| 2026-04-25 12:26 | 41.86234 | 27.96356 | 26024 ft | 400 kts | 307° |
| 2026-04-25 12:26 | 41.87912 | 27.93360 | 26478 ft | 402 kts | 307° |
| 2026-04-25 12:27 | 41.89617 | 27.90316 | 26929 ft | 405 kts | 307° |
| 2026-04-25 12:27 | 41.91291 | 27.87324 | 27358 ft | 407 kts | 307° |
| 2026-04-25 12:27 | 41.92994 | 27.84276 | 27784 ft | 409 kts | 307° |
| 2026-04-25 12:27 | 41.94704 | 27.81214 | 28183 ft | 412 kts | 307° |
| 2026-04-25 12:28 | 41.96439 | 27.78131 | 28590 ft | 413 kts | 310° |
| 2026-04-25 12:28 | 41.98417 | 27.75320 | 28972 ft | 415 kts | 315° |
| 2026-04-25 12:28 | 42.00441 | 27.72547 | 29349 ft | 417 kts | 315° |
| 2026-04-25 12:28 | 42.02477 | 27.69758 | 29705 ft | 419 kts | 315° |
| 2026-04-25 12:29 | 42.04525 | 27.66953 | 30074 ft | 421 kts | 315° |
| 2026-04-25 12:29 | 42.06580 | 27.64136 | 30430 ft | 423 kts | 315° |
| 2026-04-25 12:29 | 42.08647 | 27.61301 | 30763 ft | 425 kts | 315° |
| 2026-04-25 12:29 | 42.10721 | 27.58453 | 31137 ft | 426 kts | 315° |
| 2026-04-25 12:30 | 42.12774 | 27.55632 | 31453 ft | 428 kts | 315° |
| 2026-04-25 12:30 | 42.14888 | 27.52723 | 31777 ft | 430 kts | 315° |
| 2026-04-25 12:30 | 42.16959 | 27.49871 | 32078 ft | 432 kts | 315° |
| 2026-04-25 12:30 | 42.19069 | 27.46964 | 32379 ft | 434 kts | 315° |
| 2026-04-25 12:31 | 42.21189 | 27.44037 | 32690 ft | 436 kts | 315° |
| 2026-04-25 12:31 | 42.23309 | 27.41108 | 32986 ft | 438 kts | 315° |
| 2026-04-25 12:31 | 42.25439 | 27.38163 | 33354 ft | 438 kts | 315° |
| 2026-04-25 12:31 | 42.27563 | 27.35224 | 33782 ft | 436 kts | 315° |
| 2026-04-25 12:32 | 42.29681 | 27.32289 | 34177 ft | 435 kts | 316° |
| 2026-04-25 12:32 | 42.31792 | 27.29360 | 34578 ft | 434 kts | 315° |
| 2026-04-25 12:32 | 42.33901 | 27.26433 | 34941 ft | 434 kts | 315° |
| 2026-04-25 12:32 | 42.36005 | 27.23508 | 35298 ft | 433 kts | 315° |
| 2026-04-25 12:33 | 42.38080 | 27.20620 | 35587 ft | 434 kts | 315° |
| 2026-04-25 12:33 | 42.40182 | 27.17693 | 35895 ft | 433 kts | 315° |
| 2026-04-25 12:33 | 42.42282 | 27.14766 | 36167 ft | 433 kts | 315° |
| 2026-04-25 12:33 | 42.44383 | 27.11833 | 36424 ft | 434 kts | 315° |
| 2026-04-25 12:34 | 42.46484 | 27.08898 | 36693 ft | 434 kts | 315° |
| 2026-04-25 12:34 | 42.48582 | 27.05965 | 36969 ft | 433 kts | 315° |
| 2026-04-25 12:34 | 42.50674 | 27.03037 | 37340 ft | 430 kts | 315° |
| 2026-04-25 12:34 | 42.52045 | 27.01116 | 37559 ft | 428 kts | 315° |
| 2026-04-25 12:35 | 42.54812 | 26.97234 | 37922 ft | 427 kts | 315° |
| 2026-04-25 12:35 | 42.56883 | 26.94326 | 38024 ft | 428 kts | 315° |
| 2026-04-25 12:35 | 42.58925 | 26.91456 | 38006 ft | 427 kts | 315° |
| 2026-04-25 12:36 | 42.63036 | 26.85670 | 38002 ft | 426 kts | 315° |
| 2026-04-25 12:36 | 42.67149 | 26.79868 | 38000 ft | 426 kts | 315° |
| 2026-04-25 12:37 | 42.71256 | 26.74064 | 38002 ft | 426 kts | 315° |
| 2026-04-25 12:37 | 42.75362 | 26.68249 | 37997 ft | 425 kts | 315° |
| 2026-04-25 12:38 | 42.79461 | 26.62435 | 38004 ft | 425 kts | 315° |
| 2026-04-25 12:38 | 42.83649 | 26.56744 | 38004 ft | 425 kts | 316° |
| 2026-04-25 12:39 | 42.87840 | 26.51139 | 37996 ft | 424 kts | 316° |
| 2026-04-25 12:39 | 42.92054 | 26.45483 | 38000 ft | 425 kts | 316° |
| 2026-04-25 12:40 | 42.96253 | 26.39832 | 37998 ft | 423 kts | 316° |
| 2026-04-25 12:40 | 43.00446 | 26.34179 | 38000 ft | 423 kts | 316° |
| 2026-04-25 12:41 | 43.04638 | 26.28516 | 37996 ft | 423 kts | 316° |
| 2026-04-25 12:41 | 43.08792 | 26.22892 | 38004 ft | 423 kts | 316° |
| 2026-04-25 12:42 | 43.12968 | 26.17228 | 38000 ft | 422 kts | 316° |
| 2026-04-25 12:42 | 43.17141 | 26.11557 | 38001 ft | 422 kts | 316° |
| 2026-04-25 12:43 | 43.21303 | 26.05888 | 37991 ft | 421 kts | 316° |
| 2026-04-25 12:43 | 43.27506 | 25.97419 | 37990 ft | 421 kts | 316° |
| 2026-04-25 12:44 | 43.31647 | 25.91750 | 37993 ft | 420 kts | 316° |
| 2026-04-25 12:45 | 43.37850 | 25.83237 | 37993 ft | 420 kts | 316° |
| 2026-04-25 12:45 | 43.44037 | 25.74720 | 37991 ft | 419 kts | 316° |
| 2026-04-25 12:46 | 43.48155 | 25.69038 | 37992 ft | 419 kts | 316° |
| 2026-04-25 12:46 | 43.52249 | 25.63376 | 37999 ft | 419 kts | 316° |
| 2026-04-25 12:47 | 43.56358 | 25.57681 | 37996 ft | 418 kts | 316° |
| 2026-04-25 12:47 | 43.60458 | 25.51987 | 37999 ft | 418 kts | 315° |
| 2026-04-25 12:48 | 43.64564 | 25.46274 | 37997 ft | 418 kts | 316° |
| 2026-04-25 12:48 | 43.68660 | 25.40563 | 37999 ft | 418 kts | 315° |
| 2026-04-25 12:49 | 43.72754 | 25.34843 | 37999 ft | 418 kts | 315° |
| 2026-04-25 12:49 | 43.76844 | 25.29115 | 37999 ft | 418 kts | 315° |
| 2026-04-25 12:50 | 43.80930 | 25.23384 | 37998 ft | 418 kts | 315° |
| 2026-04-25 12:50 | 43.84979 | 25.17691 | 38000 ft | 417 kts | 315° |
| 2026-04-25 12:51 | 43.89053 | 25.11953 | 37998 ft | 418 kts | 315° |
| 2026-04-25 12:51 | 43.93125 | 25.06209 | 38002 ft | 417 kts | 316° |
| 2026-04-25 12:52 | 43.97173 | 25.00436 | 38003 ft | 417 kts | 312° |
| 2026-04-25 12:52 | 44.00981 | 24.94346 | 38012 ft | 417 kts | 313° |
| 2026-04-25 12:53 | 44.04796 | 24.88309 | 38010 ft | 412 kts | 312° |
| 2026-04-25 12:53 | 44.08579 | 24.82323 | 38007 ft | 412 kts | 312° |
| 2026-04-25 12:54 | 44.12361 | 24.76327 | 38008 ft | 412 kts | 312° |
| 2026-04-25 12:54 | 44.16116 | 24.70363 | 38008 ft | 412 kts | 312° |
| 2026-04-25 12:55 | 44.19256 | 24.65365 | 38013 ft | 412 kts | 312° |
| 2026-04-25 12:55 | 44.23663 | 24.58336 | 38018 ft | 411 kts | 312° |
| 2026-04-25 12:56 | 44.27428 | 24.52318 | 38020 ft | 411 kts | 312° |
| 2026-04-25 12:56 | 44.31158 | 24.46342 | 38018 ft | 411 kts | 312° |
| 2026-04-25 12:57 | 44.34917 | 24.40308 | 38018 ft | 411 kts | 312° |
| 2026-04-25 12:57 | 44.38669 | 24.34270 | 38017 ft | 411 kts | 312° |
| 2026-04-25 12:58 | 44.42419 | 24.28226 | 38017 ft | 411 kts | 312° |
| 2026-04-25 12:58 | 44.46165 | 24.22173 | 38017 ft | 411 kts | 312° |
| 2026-04-25 12:59 | 44.49907 | 24.16114 | 38018 ft | 411 kts | 312° |
| 2026-04-25 12:59 | 44.53648 | 24.10045 | 38017 ft | 411 kts | 312° |
| 2026-04-25 13:00 | 44.56125 | 24.06019 | 38021 ft | 411 kts | 312° |
| 2026-04-25 13:00 | 44.61094 | 23.97923 | 38018 ft | 411 kts | 312° |
| 2026-04-25 13:01 | 44.64812 | 23.91851 | 38014 ft | 409 kts | 312° |
| 2026-04-25 13:01 | 44.68514 | 23.85791 | 38018 ft | 409 kts | 312° |
| 2026-04-25 13:02 | 44.72215 | 23.79722 | 38017 ft | 408 kts | 312° |
| 2026-04-25 13:02 | 44.75904 | 23.73659 | 38010 ft | 407 kts | 311° |
| 2026-04-25 13:03 | 44.79592 | 23.67585 | 38009 ft | 407 kts | 311° |
| 2026-04-25 13:03 | 44.83247 | 23.61551 | 38010 ft | 407 kts | 311° |
| 2026-04-25 13:04 | 44.86910 | 23.55492 | 38007 ft | 406 kts | 311° |
| 2026-04-25 13:04 | 44.90571 | 23.49423 | 38002 ft | 406 kts | 311° |
| 2026-04-25 13:05 | 44.94223 | 23.43356 | 38011 ft | 405 kts | 311° |
| 2026-04-25 13:05 | 44.97862 | 23.37297 | 38009 ft | 405 kts | 311° |
| 2026-04-25 13:06 | 45.01503 | 23.31221 | 38004 ft | 404 kts | 311° |
| 2026-04-25 13:06 | 45.05113 | 23.25185 | 38010 ft | 404 kts | 311° |
| 2026-04-25 13:07 | 45.08733 | 23.19120 | 38008 ft | 403 kts | 311° |
| 2026-04-25 13:07 | 45.12351 | 23.13044 | 38005 ft | 403 kts | 311° |
| 2026-04-25 13:08 | 45.15966 | 23.06961 | 37997 ft | 403 kts | 311° |
| 2026-04-25 13:08 | 45.19574 | 23.00873 | 38004 ft | 402 kts | 310° |
| 2026-04-25 13:09 | 45.23169 | 22.94798 | 37995 ft | 402 kts | 310° |
| 2026-04-25 13:09 | 45.26765 | 22.88707 | 38002 ft | 401 kts | 310° |
| 2026-04-25 13:10 | 45.30319 | 22.82675 | 38007 ft | 401 kts | 310° |
| 2026-04-25 13:10 | 45.33897 | 22.76587 | 37992 ft | 401 kts | 310° |
| 2026-04-25 13:11 | 45.37469 | 22.70498 | 37983 ft | 400 kts | 310° |
| 2026-04-25 13:11 | 45.41032 | 22.64409 | 37995 ft | 400 kts | 310° |
| 2026-04-25 13:12 | 45.44589 | 22.58317 | 37990 ft | 399 kts | 310° |
| 2026-04-25 13:12 | 45.46940 | 22.54286 | 37986 ft | 399 kts | 310° |
| 2026-04-25 13:13 | 45.51653 | 22.46183 | 37991 ft | 399 kts | 310° |
| 2026-04-25 13:13 | 45.54609 | 22.41089 | 37987 ft | 398 kts | 310° |
| 2026-04-25 13:14 | 45.58112 | 22.35042 | 37989 ft | 397 kts | 310° |
| 2026-04-25 13:14 | 45.61626 | 22.28960 | 37988 ft | 397 kts | 309° |
| 2026-04-25 13:15 | 45.65127 | 22.22890 | 37990 ft | 395 kts | 309° |
| 2026-04-25 13:15 | 45.68624 | 22.16812 | 37990 ft | 395 kts | 309° |
| 2026-04-25 13:16 | 45.72113 | 22.10735 | 37990 ft | 394 kts | 309° |
| 2026-04-25 13:16 | 45.75595 | 22.04657 | 37987 ft | 394 kts | 309° |
| 2026-04-25 13:17 | 45.79069 | 21.98581 | 37993 ft | 394 kts | 309° |
| 2026-04-25 13:17 | 45.82537 | 21.92501 | 37987 ft | 394 kts | 309° |
| 2026-04-25 13:18 | 45.86002 | 21.86414 | 37990 ft | 393 kts | 309° |
| 2026-04-25 13:18 | 45.89455 | 21.80334 | 37989 ft | 393 kts | 309° |
| 2026-04-25 13:19 | 45.92915 | 21.74229 | 37988 ft | 394 kts | 309° |
| 2026-04-25 13:19 | 45.95792 | 21.69143 | 37991 ft | 394 kts | 309° |
| 2026-04-25 13:20 | 45.99811 | 21.62021 | 37990 ft | 395 kts | 309° |
| 2026-04-25 13:20 | 46.03264 | 21.55887 | 37992 ft | 394 kts | 309° |
| 2026-04-25 13:21 | 46.06704 | 21.49763 | 37987 ft | 393 kts | 308° |
| 2026-04-25 13:21 | 46.10144 | 21.43626 | 37990 ft | 394 kts | 308° |
| 2026-04-25 13:22 | 46.13580 | 21.37484 | 37988 ft | 394 kts | 308° |
| 2026-04-25 13:23 | 46.18732 | 21.28247 | 37990 ft | 394 kts | 308° |
| 2026-04-25 13:23 | 46.22160 | 21.22084 | 37989 ft | 394 kts | 308° |
| 2026-04-25 13:24 | 46.25583 | 21.15916 | 37988 ft | 393 kts | 308° |
| 2026-04-25 13:24 | 46.29002 | 21.09743 | 37990 ft | 393 kts | 308° |
| 2026-04-25 13:25 | 46.32418 | 21.03561 | 37989 ft | 393 kts | 308° |
| 2026-04-25 13:25 | 46.35828 | 20.97374 | 37990 ft | 393 kts | 308° |
| 2026-04-25 13:26 | 46.39216 | 20.91214 | 37990 ft | 393 kts | 308° |
| 2026-04-25 13:26 | 46.42617 | 20.85021 | 37989 ft | 393 kts | 308° |
| 2026-04-25 13:27 | 46.45543 | 20.78371 | 37994 ft | 393 kts | 300° |
| 2026-04-25 13:27 | 46.48337 | 20.71541 | 37988 ft | 393 kts | 301° |
| 2026-04-25 13:28 | 46.51160 | 20.64731 | 37968 ft | 393 kts | 301° |
| 2026-04-25 13:28 | 46.53987 | 20.57919 | 37984 ft | 394 kts | 301° |
| 2026-04-25 13:29 | 46.56809 | 20.51103 | 37979 ft | 393 kts | 301° |
| 2026-04-25 13:29 | 46.59613 | 20.44315 | 37979 ft | 393 kts | 301° |
| 2026-04-25 13:30 | 46.63831 | 20.34071 | 37970 ft | 394 kts | 301° |
| 2026-04-25 13:31 | 46.68045 | 20.23799 | 37957 ft | 393 kts | 301° |
| 2026-04-25 13:31 | 46.70846 | 20.16952 | 37980 ft | 394 kts | 301° |
| 2026-04-25 13:32 | 46.73643 | 20.10094 | 37980 ft | 393 kts | 301° |
| 2026-04-25 13:32 | 46.76434 | 20.03236 | 37982 ft | 393 kts | 301° |
| 2026-04-25 13:33 | 46.79204 | 19.96413 | 37986 ft | 393 kts | 300° |
| 2026-04-25 13:33 | 46.81990 | 19.89532 | 37992 ft | 393 kts | 300° |
| 2026-04-25 13:34 | 46.84764 | 19.82663 | 37988 ft | 393 kts | 300° |
| 2026-04-25 13:34 | 46.87533 | 19.75791 | 37991 ft | 393 kts | 300° |
| 2026-04-25 13:35 | 46.90301 | 19.68903 | 37990 ft | 393 kts | 300° |
| 2026-04-25 13:35 | 46.93068 | 19.62000 | 37990 ft | 393 kts | 300° |
| 2026-04-25 13:36 | 46.95828 | 19.55097 | 37990 ft | 393 kts | 300° |
| 2026-04-25 13:36 | 46.98580 | 19.48195 | 37990 ft | 392 kts | 300° |
| 2026-04-25 13:37 | 47.01323 | 19.41302 | 37989 ft | 392 kts | 300° |
| 2026-04-25 13:37 | 47.04066 | 19.34389 | 37983 ft | 392 kts | 300° |
| 2026-04-25 13:37 | 47.05407 | 19.31003 | 37630 ft | 386 kts | 300° |
| 2026-04-25 13:38 | 47.06747 | 19.27615 | 37228 ft | 380 kts | 299° |
| 2026-04-25 13:38 | 47.08057 | 19.24299 | 36930 ft | 372 kts | 299° |
| 2026-04-25 13:38 | 47.09347 | 19.21030 | 36521 ft | 368 kts | 299° |
| 2026-04-25 13:38 | 47.10641 | 19.17745 | 36018 ft | 366 kts | 299° |
| 2026-04-25 13:39 | 47.11894 | 19.14564 | 35482 ft | 365 kts | 299° |
| 2026-04-25 13:39 | 47.13159 | 19.11346 | 34987 ft | 363 kts | 299° |
| 2026-04-25 13:39 | 47.14420 | 19.08134 | 34519 ft | 361 kts | 299° |
| 2026-04-25 13:39 | 47.15671 | 19.04945 | 34048 ft | 359 kts | 299° |
| 2026-04-25 13:40 | 47.16913 | 19.01773 | 33569 ft | 357 kts | 299° |
| 2026-04-25 13:40 | 47.18150 | 18.98614 | 33093 ft | 355 kts | 299° |
| 2026-04-25 13:40 | 47.19379 | 18.95469 | 32619 ft | 354 kts | 299° |
| 2026-04-25 13:40 | 47.20601 | 18.92340 | 32161 ft | 352 kts | 299° |
| 2026-04-25 13:41 | 47.21815 | 18.89226 | 31707 ft | 350 kts | 299° |
| 2026-04-25 13:41 | 47.23022 | 18.86128 | 31258 ft | 348 kts | 299° |
| 2026-04-25 13:41 | 47.24221 | 18.83047 | 30825 ft | 346 kts | 299° |
| 2026-04-25 13:41 | 47.25396 | 18.80024 | 30398 ft | 344 kts | 299° |
| 2026-04-25 13:42 | 47.26579 | 18.76977 | 29962 ft | 342 kts | 299° |
| 2026-04-25 13:42 | 47.27751 | 18.73952 | 29547 ft | 339 kts | 299° |
| 2026-04-25 13:42 | 47.28918 | 18.70940 | 29133 ft | 337 kts | 299° |
| 2026-04-25 13:42 | 47.30075 | 18.67949 | 28727 ft | 335 kts | 299° |
| 2026-04-25 13:43 | 47.31224 | 18.64977 | 28325 ft | 332 kts | 299° |
| 2026-04-25 13:43 | 47.32361 | 18.62030 | 27936 ft | 330 kts | 299° |
| 2026-04-25 13:43 | 47.33493 | 18.59095 | 27546 ft | 328 kts | 299° |
| 2026-04-25 13:43 | 47.34617 | 18.56179 | 27163 ft | 326 kts | 299° |
| 2026-04-25 13:44 | 47.35729 | 18.53287 | 26787 ft | 324 kts | 298° |
| 2026-04-25 13:44 | 47.36837 | 18.50407 | 26402 ft | 322 kts | 299° |
| 2026-04-25 13:44 | 47.37936 | 18.47542 | 26029 ft | 320 kts | 298° |
| 2026-04-25 13:44 | 47.39028 | 18.44695 | 25663 ft | 317 kts | 298° |
| 2026-04-25 13:45 | 47.39745 | 18.42825 | 25426 ft | 316 kts | 299° |
| 2026-04-25 13:45 | 47.41183 | 18.39067 | 24947 ft | 312 kts | 298° |
| 2026-04-25 13:45 | 47.42247 | 18.36285 | 24601 ft | 310 kts | 299° |
| 2026-04-25 13:45 | 47.43302 | 18.33524 | 24245 ft | 307 kts | 299° |
| 2026-04-25 13:46 | 47.44349 | 18.30778 | 23891 ft | 305 kts | 299° |
| 2026-04-25 13:46 | 47.45386 | 18.28061 | 23553 ft | 303 kts | 299° |
| 2026-04-25 13:46 | 47.46415 | 18.25358 | 23212 ft | 300 kts | 298° |
| 2026-04-25 13:46 | 47.47422 | 18.22711 | 22875 ft | 298 kts | 298° |
| 2026-04-25 13:47 | 47.48434 | 18.20049 | 22538 ft | 296 kts | 298° |
| 2026-04-25 13:47 | 47.49436 | 18.17407 | 22209 ft | 294 kts | 298° |
| 2026-04-25 13:47 | 47.50442 | 18.14754 | 21878 ft | 298 kts | 298° |
| 2026-04-25 13:47 | 47.51463 | 18.12059 | 21536 ft | 302 kts | 298° |
| 2026-04-25 13:48 | 47.52489 | 18.09351 | 21196 ft | 302 kts | 298° |
| 2026-04-25 13:48 | 47.53514 | 18.06639 | 20856 ft | 301 kts | 298° |
| 2026-04-25 13:48 | 47.54535 | 18.03936 | 20520 ft | 300 kts | 298° |
| 2026-04-25 13:48 | 47.55549 | 18.01248 | 20180 ft | 298 kts | 299° |
| 2026-04-25 13:49 | 47.56556 | 17.98579 | 19846 ft | 295 kts | 298° |
| 2026-04-25 13:49 | 47.57552 | 17.95932 | 19523 ft | 293 kts | 298° |
| 2026-04-25 13:49 | 47.58528 | 17.93338 | 19197 ft | 291 kts | 298° |
| 2026-04-25 13:49 | 47.59508 | 17.90731 | 18866 ft | 288 kts | 298° |
| 2026-04-25 13:50 | 47.60479 | 17.88146 | 18542 ft | 286 kts | 298° |
| 2026-04-25 13:50 | 47.61440 | 17.85583 | 18222 ft | 283 kts | 298° |
| 2026-04-25 13:50 | 47.62390 | 17.83049 | 17902 ft | 280 kts | 298° |
| 2026-04-25 13:50 | 47.63331 | 17.80535 | 17591 ft | 278 kts | 298° |
| 2026-04-25 13:51 | 47.64264 | 17.78044 | 17280 ft | 277 kts | 298° |
| 2026-04-25 13:51 | 47.65207 | 17.75522 | 16958 ft | 281 kts | 299° |
| 2026-04-25 13:51 | 47.66164 | 17.72958 | 16631 ft | 286 kts | 299° |
| 2026-04-25 13:51 | 47.67128 | 17.70373 | 16308 ft | 286 kts | 299° |
| 2026-04-25 13:52 | 47.68090 | 17.67791 | 15986 ft | 284 kts | 299° |
| 2026-04-25 13:52 | 47.69034 | 17.65258 | 15666 ft | 282 kts | 299° |
| 2026-04-25 13:52 | 47.69979 | 17.62714 | 15347 ft | 280 kts | 299° |
| 2026-04-25 13:52 | 47.70918 | 17.60189 | 15025 ft | 278 kts | 299° |
| 2026-04-25 13:53 | 47.71849 | 17.57680 | 14691 ft | 276 kts | 299° |
| 2026-04-25 13:53 | 47.72775 | 17.55182 | 14380 ft | 275 kts | 299° |
| 2026-04-25 13:53 | 47.73693 | 17.52707 | 14099 ft | 272 kts | 299° |
| 2026-04-25 13:53 | 47.74415 | 17.50132 | 13779 ft | 273 kts | 282° |
| 2026-04-25 13:54 | 47.74429 | 17.47291 | 13529 ft | 277 kts | 269° |
| 2026-04-25 13:54 | 47.74307 | 17.44408 | 13317 ft | 282 kts | 269° |
| 2026-04-25 13:54 | 47.74167 | 17.41486 | 13063 ft | 284 kts | 269° |
| 2026-04-25 13:54 | 47.74016 | 17.38561 | 12801 ft | 283 kts | 268° |
| 2026-04-25 13:55 | 47.73858 | 17.35653 | 12542 ft | 283 kts | 268° |
| 2026-04-25 13:55 | 47.73692 | 17.32744 | 12270 ft | 282 kts | 268° |
| 2026-04-25 13:55 | 47.73524 | 17.29877 | 12020 ft | 281 kts | 268° |
| 2026-04-25 13:55 | 47.73355 | 17.26981 | 11744 ft | 281 kts | 268° |
| 2026-04-25 13:56 | 47.73185 | 17.24087 | 11492 ft | 281 kts | 268° |
| 2026-04-25 13:56 | 47.73012 | 17.21191 | 11204 ft | 282 kts | 268° |
| 2026-04-25 13:56 | 47.72839 | 17.18296 | 10938 ft | 280 kts | 268° |
| 2026-04-25 13:56 | 47.72667 | 17.15416 | 10683 ft | 279 kts | 268° |
| 2026-04-25 13:57 | 47.72494 | 17.12544 | 10410 ft | 278 kts | 268° |
| 2026-04-25 13:57 | 47.72436 | 17.11581 | 10325 ft | 277 kts | 268° |
| 2026-04-25 13:57 | 47.72151 | 17.06889 | 9918 ft | 270 kts | 268° |
| 2026-04-25 13:57 | 47.71982 | 17.04121 | 9656 ft | 267 kts | 268° |
| 2026-04-25 13:58 | 47.71814 | 17.01388 | 9395 ft | 264 kts | 268° |
| 2026-04-25 13:58 | 47.71648 | 16.98690 | 9162 ft | 261 kts | 268° |
| 2026-04-25 13:58 | 47.71483 | 16.96005 | 8918 ft | 262 kts | 268° |
| 2026-04-25 13:58 | 47.71315 | 16.93311 | 8674 ft | 262 kts | 267° |
| 2026-04-25 13:59 | 47.71150 | 16.90653 | 8427 ft | 261 kts | 267° |
| 2026-04-25 13:59 | 47.70978 | 16.87967 | 8171 ft | 261 kts | 265° |
| 2026-04-25 13:59 | 47.70558 | 16.85339 | 7921 ft | 262 kts | 257° |
| 2026-04-25 13:59 | 47.70059 | 16.82741 | 7655 ft | 261 kts | 257° |
| 2026-04-25 14:00 | 47.69743 | 16.80994 | 7474 ft | 258 kts | 261° |
| 2026-04-25 14:00 | 47.69991 | 16.77600 | 7077 ft | 250 kts | 296° |
| 2026-04-25 14:00 | 47.71047 | 16.75612 | 6871 ft | 247 kts | 321° |
| 2026-04-25 14:00 | 47.72587 | 16.74443 | 6703 ft | 251 kts | 338° |
| 2026-04-25 14:01 | 47.74264 | 16.73676 | 6508 ft | 252 kts | 341° |
| 2026-04-25 14:01 | 47.75945 | 16.72962 | 6244 ft | 250 kts | 341° |
| 2026-04-25 14:01 | 47.77609 | 16.72262 | 5979 ft | 247 kts | 341° |
| 2026-04-25 14:01 | 47.79252 | 16.71574 | 5725 ft | 243 kts | 341° |
| 2026-04-25 14:02 | 47.80855 | 16.70902 | 5542 ft | 236 kts | 341° |
| 2026-04-25 14:02 | 47.81893 | 16.70468 | 5388 ft | 232 kts | 341° |
| 2026-04-25 14:02 | 47.83426 | 16.69826 | 5153 ft | 227 kts | 341° |
| 2026-04-25 14:02 | 47.84425 | 16.69407 | 5022 ft | 223 kts | 341° |
| 2026-04-25 14:03 | 47.86410 | 16.68576 | 4673 ft | 220 kts | 341° |
| 2026-04-25 14:03 | 47.87868 | 16.67967 | 4419 ft | 212 kts | 341° |
| 2026-04-25 14:03 | 47.89250 | 16.67387 | 4239 ft | 200 kts | 341° |
| 2026-04-25 14:03 | 47.90566 | 16.66839 | 4103 ft | 191 kts | 341° |
| 2026-04-25 14:04 | 47.91827 | 16.66308 | 3938 ft | 185 kts | 341° |
| 2026-04-25 14:04 | 47.93027 | 16.65802 | 3714 ft | 176 kts | 341° |
| 2026-04-25 14:04 | 47.94169 | 16.65321 | 3510 ft | 166 kts | 341° |
| 2026-04-25 14:04 | 47.95259 | 16.64863 | 3307 ft | 164 kts | 341° |
| 2026-04-25 14:05 | 47.96355 | 16.64399 | 3105 ft | 163 kts | 341° |
| 2026-04-25 14:05 | 47.97446 | 16.63944 | 2885 ft | 162 kts | 341° |
| 2026-04-25 14:05 | 47.98525 | 16.63490 | 2717 ft | 159 kts | 341° |
| 2026-04-25 14:05 | 47.99580 | 16.63048 | 2461 ft | 157 kts | 340° |
| 2026-04-25 14:06 | 48.00601 | 16.62623 | 2270 ft | 146 kts | 340° |
| 2026-04-25 14:06 | 48.01564 | 16.62215 | 2046 ft | 142 kts | 340° |
| 2026-04-25 14:06 | 48.02513 | 16.61801 | 1854 ft | 143 kts | 339° |
| 2026-04-25 14:06 | 48.03472 | 16.61402 | 1527 ft | 142 kts | 340° |
| 2026-04-25 14:07 | 48.04418 | 16.60995 | 1345 ft | 142 kts | 340° |
| 2026-04-25 14:07 | 48.05355 | 16.60576 | 1159 ft | 143 kts | 342° |
| 2026-04-25 14:07 | 48.06299 | 16.60209 | 1047 ft | 138 kts | 341° |
| 2026-04-25 14:07 | 48.07239 | 16.59801 | 944 ft | 144 kts | 339° |
| 2026-04-25 14:08 | 48.08219 | 16.59370 | 807 ft | 147 kts | 341° |
| 2026-04-25 14:08 | 48.09191 | 16.58988 | 637 ft | 141 kts | 342° |
| 2026-04-25 14:08 | 48.10018 | 16.58632 | 616 ft | 91 kts | 343° |
| 2026-04-25 14:08 | 48.10447 | 16.58458 | 614 ft | 42 kts | 343° |
| 2026-04-25 14:09 | 48.10649 | 16.58358 | 617 ft | 29 kts | 332° |
| 2026-04-25 14:09 | 48.10777 | 16.58211 | 614 ft | 13 kts | 315° |
| 2026-04-25 14:09 | 48.10793 | 16.58186 | 616 ft | 0 kts | 312° |
| 2026-04-25 14:10 | 48.10795 | 16.58183 | 623 ft | 2 kts | 312° |
| 2026-04-25 14:10 | 48.10811 | 16.58156 | 620 ft | 5 kts | 312° |
| 2026-04-25 14:11 | 48.10845 | 16.58099 | 617 ft | 9 kts | 314° |
| 2026-04-25 14:11 | 48.10903 | 16.58018 | 616 ft | 14 kts | 317° |
| 2026-04-25 14:11 | 48.10977 | 16.57903 | 619 ft | 17 kts | 314° |
| 2026-04-25 14:11 | 48.11060 | 16.57798 | 614 ft | 15 kts | 336° |
| 2026-04-25 14:12 | 48.11153 | 16.57711 | 619 ft | 17 kts | 309° |
| 2026-04-25 14:12 | 48.11209 | 16.57552 | 612 ft | 17 kts | 298° |
| 2026-04-25 14:12 | 48.11258 | 16.57395 | 618 ft | 18 kts | 297° |
| 2026-04-25 14:12 | 48.11318 | 16.57223 | 614 ft | 19 kts | 294° |
| 2026-04-25 14:13 | 48.11377 | 16.57041 | 623 ft | 19 kts | 298° |
| 2026-04-25 14:13 | 48.11436 | 16.56864 | 612 ft | 18 kts | 295° |
| 2026-04-25 14:13 | 48.11486 | 16.56709 | 623 ft | 18 kts | 296° |
| 2026-04-25 14:13 | 48.11542 | 16.56537 | 612 ft | 19 kts | 296° |
| 2026-04-25 14:14 | 48.11596 | 16.56368 | 615 ft | 16 kts | 296° |
| 2026-04-25 14:14 | 48.11651 | 16.56204 | 613 ft | 19 kts | 296° |
| 2026-04-25 14:14 | 48.11711 | 16.56016 | 615 ft | 21 kts | 297° |
| 2026-04-25 14:14 | 48.11773 | 16.55827 | 612 ft | 17 kts | 296° |
| 2026-04-25 14:15 | 48.11822 | 16.55674 | 622 ft | 14 kts | 296° |
| 2026-04-25 14:15 | 48.11848 | 16.55593 | 618 ft | 13 kts | 296° |
| 2026-04-25 14:15 | 48.11906 | 16.55438 | 617 ft | 13 kts | 330° |
| 2026-04-25 14:15 | 48.11924 | 16.55419 | 619 ft | 0 kts | 321° |
| 2026-04-25 14:16 | 48.11929 | 16.55417 | 612 ft | 1 kts | 343° |
| 2026-04-25 14:16 | 48.11944 | 16.55425 | 622 ft | 7 kts | 21° |
| 2026-04-25 14:16 | 48.11994 | 16.55493 | 615 ft | 13 kts | 32° |
| 2026-04-25 14:16 | 48.12041 | 16.55557 | 624 ft | 5 kts | 93° |
| 2026-04-25 14:17 | 48.12026 | 16.55589 | 612 ft | 1 kts | 123° |
| 2026-04-25 14:17 | 48.12019 | 16.55606 | 612 ft | 0 kts | 120° |